Terminal Aerodrome Forecast
Issued by NWS

Home | Current Version | Previous Version | Text Only | Print | Product List | Glossary On
Versions: 1 2 3 4 5 6 7 8 9 10 11 12 13 14 15 16 17
349
FTUS43 KAPX 302320
TAFTVC
TAF
KTVC 302320Z 0100/0124 05010KT P6SM FEW100 OVC150
     FM010300 06006KT P6SM OVC090
     FM010700 06006KT P6SM VCSH OVC060
     FM011400 05008KT P6SM VCSH OVC035
     FM011800 05009KT P6SM OVC050=

USA.gov is the U.S. government's official web portal to all federal, state and local government web resources and services.